sensor_id;sensor_type;location;lat;lon;timestamp;temperature;humidity
35445;DHT22;21562;49.476;6.086;2023-01-29T00:01:05;3.70;99.90
35445;DHT22;21562;49.476;6.086;2023-01-29T00:03:32;3.80;99.90
35445;DHT22;21562;49.476;6.086;2023-01-29T00:05:58;4.10;99.90
35445;DHT22;21562;49.476;6.086;2023-01-29T00:08:23;4.20;99.90
35445;DHT22;21562;49.476;6.086;2023-01-29T00:10:49;4.20;99.90
35445;DHT22;21562;49.476;6.086;2023-01-29T00:13:15;4.20;99.90
35445;DHT22;21562;49.476;6.086;2023-01-29T00:15:40;4.00;99.90
35445;DHT22;21562;49.476;6.086;2023-01-29T00:18:06;4.20;99.90
35445;DHT22;21562;49.476;6.086;2023-01-29T00:20:32;4.20;99.90
35445;DHT22;21562;49.476;6.086;2023-01-29T00:22:58;4.30;99.90
35445;DHT22;21562;49.476;6.086;2023-01-29T00:25:24;4.30;99.90
35445;DHT22;21562;49.476;6.086;2023-01-29T00:27:50;3.90;99.90
35445;DHT22;21562;49.476;6.086;2023-01-29T00:30:16;3.50;99.90
35445;DHT22;21562;49.476;6.086;2023-01-29T00:32:44;3.40;99.90
35445;DHT22;21562;49.476;6.086;2023-01-29T00:35:10;3.60;99.90
35445;DHT22;21562;49.476;6.086;2023-01-29T00:37:36;3.80;99.90
35445;DHT22;21562;49.476;6.086;2023-01-29T00:40:03;3.90;99.90
35445;DHT22;21562;49.476;6.086;2023-01-29T00:42:29;4.00;99.90
35445;DHT22;21562;49.476;6.086;2023-01-29T00:45:13;3.50;99.90
35445;DHT22;21562;49.476;6.086;2023-01-29T00:47:39;3.50;99.90
35445;DHT22;21562;49.476;6.086;2023-01-29T00:50:07;3.60;99.90
35445;DHT22;21562;49.476;6.086;2023-01-29T00:52:34;3.70;99.90
35445;DHT22;21562;49.476;6.086;2023-01-29T00:55:01;3.90;99.90
35445;DHT22;21562;49.476;6.086;2023-01-29T00:57:29;4.10;99.90
35445;DHT22;21562;49.476;6.086;2023-01-29T00:59:55;4.20;99.90
35445;DHT22;21562;49.476;6.086;2023-01-29T01:02:21;4.30;99.90
35445;DHT22;21562;49.476;6.086;2023-01-29T01:05:05;4.30;99.90
35445;DHT22;21562;49.476;6.086;2023-01-29T01:07:41;4.30;99.90
35445;DHT22;21562;49.476;6.086;2023-01-29T01:10:11;4.20;99.90
35445;DHT22;21562;49.476;6.086;2023-01-29T01:12:55;4.00;99.90
35445;DHT22;21562;49.476;6.086;2023-01-29T01:15:24;3.70;99.90
35445;DHT22;21562;49.476;6.086;2023-01-29T01:17:58;3.50;99.90
35445;DHT22;21562;49.476;6.086;2023-01-29T01:20:26;3.30;99.90
35445;DHT22;21562;49.476;6.086;2023-01-29T01:22:55;3.10;99.90
35445;DHT22;21562;49.476;6.086;2023-01-29T01:25:25;2.80;99.90
35445;DHT22;21562;49.476;6.086;2023-01-29T01:27:55;3.10;99.90
35445;DHT22;21562;49.476;6.086;2023-01-29T01:30:21;3.10;99.90
35445;DHT22;21562;49.476;6.086;2023-01-29T01:32:47;3.20;99.90
35445;DHT22;21562;49.476;6.086;2023-01-29T01:35:13;3.50;99.90
35445;DHT22;21562;49.476;6.086;2023-01-29T01:37:39;3.40;99.90
35445;DHT22;21562;49.476;6.086;2023-01-29T01:40:13;3.40;99.90
35445;DHT22;21562;49.476;6.086;2023-01-29T01:42:43;3.60;99.90
35445;DHT22;21562;49.476;6.086;2023-01-29T01:45:28;3.70;99.90
35445;DHT22;21562;49.476;6.086;2023-01-29T01:50:40;4.00;99.90
35445;DHT22;21562;49.476;6.086;2023-01-29T01:53:13;4.20;99.90
35445;DHT22;21562;49.476;6.086;2023-01-29T01:55:51;4.30;99.90
35445;DHT22;21562;49.476;6.086;2023-01-29T01:58:36;4.30;99.90
35445;DHT22;21562;49.476;6.086;2023-01-29T02:01:04;4.40;99.90
35445;DHT22;21562;49.476;6.086;2023-01-29T02:03:34;4.40;99.90
35445;DHT22;21562;49.476;6.086;2023-01-29T02:06:20;4.10;99.90
35445;DHT22;21562;49.476;6.086;2023-01-29T02:09:05;3.80;99.90
35445;DHT22;21562;49.476;6.086;2023-01-29T02:11:52;3.80;99.90
35445;DHT22;21562;49.476;6.086;2023-01-29T02:14:18;3.90;99.90
35445;DHT22;21562;49.476;6.086;2023-01-29T02:16:43;3.80;99.90
35445;DHT22;21562;49.476;6.086;2023-01-29T02:19:19;3.80;99.90
35445;DHT22;21562;49.476;6.086;2023-01-29T02:21:51;3.60;99.90
35445;DHT22;21562;49.476;6.086;2023-01-29T02:24:43;3.70;99.90
35445;DHT22;21562;49.476;6.086;2023-01-29T02:27:15;3.60;99.90
35445;DHT22;21562;49.476;6.086;2023-01-29T02:29:56;3.50;99.90
35445;DHT22;21562;49.476;6.086;2023-01-29T02:32:49;3.60;99.90
35445;DHT22;21562;49.476;6.086;2023-01-29T02:35:44;3.70;99.90
35445;DHT22;21562;49.476;6.086;2023-01-29T02:38:18;3.80;99.90
35445;DHT22;21562;49.476;6.086;2023-01-29T02:41:00;3.70;99.90
35445;DHT22;21562;49.476;6.086;2023-01-29T02:46:24;3.60;99.90
35445;DHT22;21562;49.476;6.086;2023-01-29T02:49:00;3.50;99.90
35445;DHT22;21562;49.476;6.086;2023-01-29T02:51:50;3.60;99.90
35445;DHT22;21562;49.476;6.086;2023-01-29T02:57:22;3.80;99.90
35445;DHT22;21562;49.476;6.086;2023-01-29T03:00:04;3.80;99.90
35445;DHT22;21562;49.476;6.086;2023-01-29T03:02:40;4.10;99.90
35445;DHT22;21562;49.476;6.086;2023-01-29T03:05:19;4.10;99.90
35445;DHT22;21562;49.476;6.086;2023-01-29T03:07:52;4.00;99.90
35445;DHT22;21562;49.476;6.086;2023-01-29T03:10:42;4.10;99.90
35445;DHT22;21562;49.476;6.086;2023-01-29T03:18:57;4.20;99.90
35445;DHT22;21562;49.476;6.086;2023-01-29T03:21:31;4.50;99.90
35445;DHT22;21562;49.476;6.086;2023-01-29T03:24:47;4.60;99.90
35445;DHT22;21562;49.476;6.086;2023-01-29T03:28:01;4.70;99.90
35445;DHT22;21562;49.476;6.086;2023-01-29T03:30:53;4.40;99.90
35445;DHT22;21562;49.476;6.086;2023-01-29T03:36:38;3.90;99.90
35445;DHT22;21562;49.476;6.086;2023-01-29T03:39:11;3.90;99.90
35445;DHT22;21562;49.476;6.086;2023-01-29T03:46:56;3.90;99.90
35445;DHT22;21562;49.476;6.086;2023-01-29T03:49:31;3.80;99.90
35445;DHT22;21562;49.476;6.086;2023-01-29T03:54:43;4.10;99.90
35445;DHT22;21562;49.476;6.086;2023-01-29T03:57:18;4.10;99.90
35445;DHT22;21562;49.476;6.086;2023-01-29T04:05:21;4.40;99.90
35445;DHT22;21562;49.476;6.086;2023-01-29T04:07:53;4.20;99.90
35445;DHT22;21562;49.476;6.086;2023-01-29T04:10:24;4.10;99.90
35445;DHT22;21562;49.476;6.086;2023-01-29T04:12:55;3.80;99.90
35445;DHT22;21562;49.476;6.086;2023-01-29T04:15:25;3.90;99.90
35445;DHT22;21562;49.476;6.086;2023-01-29T04:17:52;4.20;99.90
35445;DHT22;21562;49.476;6.086;2023-01-29T04:20:20;4.20;99.90
35445;DHT22;21562;49.476;6.086;2023-01-29T04:22:48;4.20;99.90
35445;DHT22;21562;49.476;6.086;2023-01-29T04:25:21;4.20;99.90
35445;DHT22;21562;49.476;6.086;2023-01-29T04:30:34;4.10;99.90
35445;DHT22;21562;49.476;6.086;2023-01-29T04:33:21;4.10;99.90
35445;DHT22;21562;49.476;6.086;2023-01-29T04:38:53;3.60;99.90
35445;DHT22;21562;49.476;6.086;2023-01-29T04:41:38;3.60;99.90
35445;DHT22;21562;49.476;6.086;2023-01-29T04:44:14;3.40;99.90
35445;DHT22;21562;49.476;6.086;2023-01-29T04:49:44;3.60;99.90
35445;DHT22;21562;49.476;6.086;2023-01-29T04:58:16;4.10;99.90
35445;DHT22;21562;49.476;6.086;2023-01-29T05:00:48;4.10;99.90
35445;DHT22;21562;49.476;6.086;2023-01-29T05:03:18;4.10;99.90
35445;DHT22;21562;49.476;6.086;2023-01-29T05:05:46;4.10;99.90
35445;DHT22;21562;49.476;6.086;2023-01-29T05:08:16;4.20;99.90
35445;DHT22;21562;49.476;6.086;2023-01-29T05:10:45;3.80;99.90
35445;DHT22;21562;49.476;6.086;2023-01-29T05:13:13;3.60;99.90
35445;DHT22;21562;49.476;6.086;2023-01-29T05:18:17;3.80;99.90
35445;DHT22;21562;49.476;6.086;2023-01-29T05:20:43;4.00;99.90
35445;DHT22;21562;49.476;6.086;2023-01-29T05:23:18;3.70;99.90
35445;DHT22;21562;49.476;6.086;2023-01-29T05:25:45;3.40;99.90
35445;DHT22;21562;49.476;6.086;2023-01-29T05:28:11;3.50;99.90
35445;DHT22;21562;49.476;6.086;2023-01-29T05:30:45;3.60;99.90
35445;DHT22;21562;49.476;6.086;2023-01-29T05:33:20;3.80;99.90
35445;DHT22;21562;49.476;6.086;2023-01-29T05:35:46;4.00;99.90
35445;DHT22;21562;49.476;6.086;2023-01-29T05:38:13;4.10;99.90
35445;DHT22;21562;49.476;6.086;2023-01-29T05:40:39;4.00;99.90
35445;DHT22;21562;49.476;6.086;2023-01-29T05:43:05;4.10;99.90
35445;DHT22;21562;49.476;6.086;2023-01-29T05:45:31;4.20;99.90
35445;DHT22;21562;49.476;6.086;2023-01-29T05:47:58;4.30;99.90
35445;DHT22;21562;49.476;6.086;2023-01-29T05:50:25;4.20;99.90
35445;DHT22;21562;49.476;6.086;2023-01-29T05:52:58;4.10;99.90
35445;DHT22;21562;49.476;6.086;2023-01-29T05:55:25;4.20;99.90
35445;DHT22;21562;49.476;6.086;2023-01-29T05:57:50;4.10;99.90
35445;DHT22;21562;49.476;6.086;2023-01-29T06:00:16;4.20;99.90
35445;DHT22;21562;49.476;6.086;2023-01-29T06:02:42;4.30;99.90
35445;DHT22;21562;49.476;6.086;2023-01-29T06:05:08;4.30;99.90
35445;DHT22;21562;49.476;6.086;2023-01-29T06:07:34;4.30;99.90
35445;DHT22;21562;49.476;6.086;2023-01-29T06:10:00;4.30;99.90
35445;DHT22;21562;49.476;6.086;2023-01-29T06:12:26;4.00;99.90
35445;DHT22;21562;49.476;6.086;2023-01-29T06:14:52;3.80;99.90
35445;DHT22;21562;49.476;6.086;2023-01-29T06:17:17;3.50;99.90
35445;DHT22;21562;49.476;6.086;2023-01-29T06:19:43;3.70;99.90
35445;DHT22;21562;49.476;6.086;2023-01-29T06:22:09;3.80;99.90
35445;DHT22;21562;49.476;6.086;2023-01-29T06:24:34;3.90;99.90
35445;DHT22;21562;49.476;6.086;2023-01-29T06:27:00;4.00;99.90
35445;DHT22;21562;49.476;6.086;2023-01-29T06:29:25;3.80;99.90
35445;DHT22;21562;49.476;6.086;2023-01-29T06:31:51;3.30;99.90
35445;DHT22;21562;49.476;6.086;2023-01-29T06:34:17;2.40;99.90
35445;DHT22;21562;49.476;6.086;2023-01-29T06:36:42;2.20;99.90
35445;DHT22;21562;49.476;6.086;2023-01-29T06:39:08;2.40;99.90
35445;DHT22;21562;49.476;6.086;2023-01-29T06:41:34;2.40;99.90
35445;DHT22;21562;49.476;6.086;2023-01-29T06:44:00;2.60;99.90
35445;DHT22;21562;49.476;6.086;2023-01-29T06:46:25;2.70;99.90
35445;DHT22;21562;49.476;6.086;2023-01-29T06:48:51;3.00;99.90
35445;DHT22;21562;49.476;6.086;2023-01-29T06:51:17;3.30;99.90
35445;DHT22;21562;49.476;6.086;2023-01-29T06:53:43;3.50;99.90
35445;DHT22;21562;49.476;6.086;2023-01-29T06:56:08;3.40;99.90
35445;DHT22;21562;49.476;6.086;2023-01-29T06:58:37;2.80;99.90
35445;DHT22;21562;49.476;6.086;2023-01-29T07:01:05;2.30;99.90
35445;DHT22;21562;49.476;6.086;2023-01-29T07:03:31;2.30;99.90
35445;DHT22;21562;49.476;6.086;2023-01-29T07:05:56;2.30;99.90
35445;DHT22;21562;49.476;6.086;2023-01-29T07:08:22;1.90;99.90
35445;DHT22;21562;49.476;6.086;2023-01-29T07:10:48;1.80;99.90
35445;DHT22;21562;49.476;6.086;2023-01-29T07:13:14;1.30;99.90
35445;DHT22;21562;49.476;6.086;2023-01-29T07:15:39;1.10;99.90
35445;DHT22;21562;49.476;6.086;2023-01-29T07:18:06;1.20;99.90
35445;DHT22;21562;49.476;6.086;2023-01-29T07:20:38;1.20;99.90
35445;DHT22;21562;49.476;6.086;2023-01-29T07:23:04;1.50;99.90
35445;DHT22;21562;49.476;6.086;2023-01-29T07:25:30;1.60;99.90
35445;DHT22;21562;49.476;6.086;2023-01-29T07:27:59;1.40;99.90
35445;DHT22;21562;49.476;6.086;2023-01-29T07:30:25;1.20;99.90
35445;DHT22;21562;49.476;6.086;2023-01-29T07:32:50;1.30;99.90
35445;DHT22;21562;49.476;6.086;2023-01-29T07:35:16;1.60;99.90
35445;DHT22;21562;49.476;6.086;2023-01-29T07:37:42;1.40;99.90
35445;DHT22;21562;49.476;6.086;2023-01-29T07:40:08;1.20;99.90
35445;DHT22;21562;49.476;6.086;2023-01-29T07:42:36;1.20;99.90
35445;DHT22;21562;49.476;6.086;2023-01-29T07:45:03;1.50;99.90
35445;DHT22;21562;49.476;6.086;2023-01-29T07:47:29;1.60;99.90
35445;DHT22;21562;49.476;6.086;2023-01-29T07:49:55;1.60;99.90
35445;DHT22;21562;49.476;6.086;2023-01-29T07:52:20;1.10;99.90
35445;DHT22;21562;49.476;6.086;2023-01-29T07:54:46;1.30;99.90
35445;DHT22;21562;49.476;6.086;2023-01-29T07:57:11;1.50;99.90
35445;DHT22;21562;49.476;6.086;2023-01-29T07:59:37;1.90;99.90
35445;DHT22;21562;49.476;6.086;2023-01-29T08:02:03;2.10;99.90
35445;DHT22;21562;49.476;6.086;2023-01-29T08:04:28;2.20;99.90
35445;DHT22;21562;49.476;6.086;2023-01-29T08:06:54;2.20;99.90
35445;DHT22;21562;49.476;6.086;2023-01-29T08:09:19;2.00;99.90
35445;DHT22;21562;49.476;6.086;2023-01-29T08:11:45;2.10;99.90
35445;DHT22;21562;49.476;6.086;2023-01-29T08:14:11;2.20;99.90
35445;DHT22;21562;49.476;6.086;2023-01-29T08:16:36;2.10;99.90
35445;DHT22;21562;49.476;6.086;2023-01-29T08:19:02;2.20;99.90
35445;DHT22;21562;49.476;6.086;2023-01-29T08:21:27;1.20;99.90
35445;DHT22;21562;49.476;6.086;2023-01-29T08:23:53;1.40;99.90
35445;DHT22;21562;49.476;6.086;2023-01-29T08:26:19;1.20;99.90
35445;DHT22;21562;49.476;6.086;2023-01-29T08:28:44;0.90;99.90
35445;DHT22;21562;49.476;6.086;2023-01-29T08:31:15;0.80;99.90
35445;DHT22;21562;49.476;6.086;2023-01-29T08:33:40;0.80;99.90
35445;DHT22;21562;49.476;6.086;2023-01-29T08:36:07;1.00;99.90
35445;DHT22;21562;49.476;6.086;2023-01-29T08:38:33;1.30;99.90
35445;DHT22;21562;49.476;6.086;2023-01-29T08:40:58;1.50;99.90
35445;DHT22;21562;49.476;6.086;2023-01-29T08:43:24;2.00;99.90
35445;DHT22;21562;49.476;6.086;2023-01-29T08:45:50;2.20;99.90
35445;DHT22;21562;49.476;6.086;2023-01-29T08:48:15;1.90;99.90
35445;DHT22;21562;49.476;6.086;2023-01-29T08:50:41;1.90;99.90
35445;DHT22;21562;49.476;6.086;2023-01-29T08:53:07;1.80;99.90
35445;DHT22;21562;49.476;6.086;2023-01-29T08:55:38;2.10;99.90
35445;DHT22;21562;49.476;6.086;2023-01-29T08:58:06;2.30;99.90
35445;DHT22;21562;49.476;6.086;2023-01-29T09:00:33;2.40;99.90
35445;DHT22;21562;49.476;6.086;2023-01-29T09:02:59;2.70;99.90
35445;DHT22;21562;49.476;6.086;2023-01-29T09:05:28;2.80;99.90
35445;DHT22;21562;49.476;6.086;2023-01-29T09:07:56;3.00;99.90
35445;DHT22;21562;49.476;6.086;2023-01-29T09:10:22;3.00;99.90
35445;DHT22;21562;49.476;6.086;2023-01-29T09:12:47;3.00;99.90
35445;DHT22;21562;49.476;6.086;2023-01-29T09:15:13;3.30;99.90
35445;DHT22;21562;49.476;6.086;2023-01-29T09:17:38;3.60;99.90
35445;DHT22;21562;49.476;6.086;2023-01-29T09:20:06;3.80;99.90
35445;DHT22;21562;49.476;6.086;2023-01-29T09:22:32;3.40;99.90
35445;DHT22;21562;49.476;6.086;2023-01-29T09:24:57;3.30;99.90
35445;DHT22;21562;49.476;6.086;2023-01-29T09:27:23;2.60;99.90
35445;DHT22;21562;49.476;6.086;2023-01-29T09:29:49;2.00;99.90
35445;DHT22;21562;49.476;6.086;2023-01-29T09:32:15;1.80;99.90
35445;DHT22;21562;49.476;6.086;2023-01-29T09:34:40;1.40;99.90
35445;DHT22;21562;49.476;6.086;2023-01-29T09:37:06;1.30;99.90
35445;DHT22;21562;49.476;6.086;2023-01-29T09:39:32;1.60;99.90
35445;DHT22;21562;49.476;6.086;2023-01-29T09:42:23;2.40;99.90
35445;DHT22;21562;49.476;6.086;2023-01-29T09:45:12;2.40;99.90
35445;DHT22;21562;49.476;6.086;2023-01-29T09:47:39;2.20;99.90
35445;DHT22;21562;49.476;6.086;2023-01-29T09:50:16;2.50;99.90
35445;DHT22;21562;49.476;6.086;2023-01-29T09:52:50;2.70;99.90
35445;DHT22;21562;49.476;6.086;2023-01-29T09:55:24;2.80;99.90
35445;DHT22;21562;49.476;6.086;2023-01-29T09:57:51;2.60;99.90
35445;DHT22;21562;49.476;6.086;2023-01-29T10:00:23;2.30;99.90
35445;DHT22;21562;49.476;6.086;2023-01-29T10:03:18;2.20;99.90
35445;DHT22;21562;49.476;6.086;2023-01-29T10:06:16;2.40;99.90
35445;DHT22;21562;49.476;6.086;2023-01-29T10:23:37;1.60;99.90
35445;DHT22;21562;49.476;6.086;2023-01-29T10:26:10;1.90;99.90
35445;DHT22;21562;49.476;6.086;2023-01-29T10:28:47;1.90;99.90
35445;DHT22;21562;49.476;6.086;2023-01-29T10:31:29;1.80;99.90
35445;DHT22;21562;49.476;6.086;2023-01-29T10:34:01;1.60;99.90
35445;DHT22;21562;49.476;6.086;2023-01-29T10:36:43;1.50;99.90
35445;DHT22;21562;49.476;6.086;2023-01-29T10:39:30;1.40;99.90
35445;DHT22;21562;49.476;6.086;2023-01-29T10:42:25;1.70;99.90
35445;DHT22;21562;49.476;6.086;2023-01-29T10:50:51;1.40;99.90
35445;DHT22;21562;49.476;6.086;2023-01-29T10:53:29;1.80;99.90
35445;DHT22;21562;49.476;6.086;2023-01-29T10:56:14;2.30;99.90
35445;DHT22;21562;49.476;6.086;2023-01-29T10:58:48;2.70;99.90
35445;DHT22;21562;49.476;6.086;2023-01-29T11:01:15;3.20;99.90
35445;DHT22;21562;49.476;6.086;2023-01-29T11:03:41;3.40;99.90
35445;DHT22;21562;49.476;6.086;2023-01-29T11:11:41;2.60;99.90
35445;DHT22;21562;49.476;6.086;2023-01-29T11:14:29;3.00;99.90
35445;DHT22;21562;49.476;6.086;2023-01-29T11:16:56;2.90;99.90
35445;DHT22;21562;49.476;6.086;2023-01-29T11:19:39;2.70;99.90
35445;DHT22;21562;49.476;6.086;2023-01-29T11:22:18;2.00;99.90
35445;DHT22;21562;49.476;6.086;2023-01-29T11:24:45;1.70;99.90
35445;DHT22;21562;49.476;6.086;2023-01-29T11:29:43;2.00;99.90
35445;DHT22;21562;49.476;6.086;2023-01-29T11:32:25;2.20;99.90
35445;DHT22;21562;49.476;6.086;2023-01-29T11:35:19;2.20;99.90
35445;DHT22;21562;49.476;6.086;2023-01-29T11:37:46;2.50;99.90
35445;DHT22;21562;49.476;6.086;2023-01-29T11:42:44;2.90;99.90
35445;DHT22;21562;49.476;6.086;2023-01-29T11:45:27;3.20;99.90
35445;DHT22;21562;49.476;6.086;2023-01-29T11:47:55;3.70;99.90
35445;DHT22;21562;49.476;6.086;2023-01-29T11:50:29;4.20;99.90
35445;DHT22;21562;49.476;6.086;2023-01-29T11:52:55;4.20;99.90
35445;DHT22;21562;49.476;6.086;2023-01-29T11:55:25;3.00;99.90
35445;DHT22;21562;49.476;6.086;2023-01-29T12:00:27;3.10;99.90
35445;DHT22;21562;49.476;6.086;2023-01-29T12:03:14;3.00;99.90
35445;DHT22;21562;49.476;6.086;2023-01-29T12:05:52;3.00;99.90
35445;DHT22;21562;49.476;6.086;2023-01-29T12:08:18;3.10;99.90
35445;DHT22;21562;49.476;6.086;2023-01-29T12:10:46;3.30;99.90
35445;DHT22;21562;49.476;6.086;2023-01-29T12:15:42;4.40;99.90
35445;DHT22;21562;49.476;6.086;2023-01-29T12:20:56;4.20;99.90
35445;DHT22;21562;49.476;6.086;2023-01-29T12:26:17;4.30;99.90
35445;DHT22;21562;49.476;6.086;2023-01-29T12:31:38;3.90;99.90
35445;DHT22;21562;49.476;6.086;2023-01-29T12:37:08;3.80;99.90
35445;DHT22;21562;49.476;6.086;2023-01-29T12:39:36;3.80;99.90
35445;DHT22;21562;49.476;6.086;2023-01-29T12:42:07;3.70;99.90
35445;DHT22;21562;49.476;6.086;2023-01-29T12:44:38;3.60;99.90
35445;DHT22;21562;49.476;6.086;2023-01-29T12:47:14;4.00;99.90
35445;DHT22;21562;49.476;6.086;2023-01-29T12:49:42;4.60;99.90
35445;DHT22;21562;49.476;6.086;2023-01-29T12:52:38;5.10;99.90
35445;DHT22;21562;49.476;6.086;2023-01-29T12:55:07;4.40;99.90
35445;DHT22;21562;49.476;6.086;2023-01-29T12:57:44;3.60;99.90
35445;DHT22;21562;49.476;6.086;2023-01-29T13:00:14;3.60;99.90
35445;DHT22;21562;49.476;6.086;2023-01-29T13:03:00;3.70;99.90
35445;DHT22;21562;49.476;6.086;2023-01-29T13:05:36;3.80;99.90
35445;DHT22;21562;49.476;6.086;2023-01-29T13:08:07;4.10;99.90
35445;DHT22;21562;49.476;6.086;2023-01-29T13:10:37;3.90;99.90
35445;DHT22;21562;49.476;6.086;2023-01-29T13:13:18;3.70;99.90
35445;DHT22;21562;49.476;6.086;2023-01-29T13:15:47;4.00;99.90
35445;DHT22;21562;49.476;6.086;2023-01-29T13:18:35;4.30;99.90
35445;DHT22;21562;49.476;6.086;2023-01-29T13:21:03;4.70;99.90
35445;DHT22;21562;49.476;6.086;2023-01-29T13:23:35;4.80;99.90
35445;DHT22;21562;49.476;6.086;2023-01-29T13:26:02;4.30;99.90
35445;DHT22;21562;49.476;6.086;2023-01-29T13:28:30;4.40;99.90
35445;DHT22;21562;49.476;6.086;2023-01-29T13:31:31;3.80;99.90
35445;DHT22;21562;49.476;6.086;2023-01-29T13:36:44;3.10;99.90
35445;DHT22;21562;49.476;6.086;2023-01-29T13:41:49;3.80;99.90
35445;DHT22;21562;49.476;6.086;2023-01-29T13:44:36;4.10;99.90
35445;DHT22;21562;49.476;6.086;2023-01-29T13:47:10;3.80;99.90
35445;DHT22;21562;49.476;6.086;2023-01-29T13:49:51;3.60;99.90
35445;DHT22;21562;49.476;6.086;2023-01-29T13:52:29;3.60;99.90
35445;DHT22;21562;49.476;6.086;2023-01-29T13:54:58;3.60;99.90
35445;DHT22;21562;49.476;6.086;2023-01-29T14:08:01;4.60;99.90
35445;DHT22;21562;49.476;6.086;2023-01-29T14:10:33;4.50;99.90
35445;DHT22;21562;49.476;6.086;2023-01-29T14:15:30;4.20;99.90
35445;DHT22;21562;49.476;6.086;2023-01-29T14:18:20;4.20;99.90
35445;DHT22;21562;49.476;6.086;2023-01-29T14:23:40;4.80;99.90
35445;DHT22;21562;49.476;6.086;2023-01-29T14:34:24;4.30;99.90
35445;DHT22;21562;49.476;6.086;2023-01-29T14:36:54;4.60;99.90
35445;DHT22;21562;49.476;6.086;2023-01-29T14:39:36;5.20;99.90
35445;DHT22;21562;49.476;6.086;2023-01-29T14:42:32;5.10;99.90
35445;DHT22;21562;49.476;6.086;2023-01-29T14:45:06;5.30;99.90
35445;DHT22;21562;49.476;6.086;2023-01-29T14:50:00;5.20;99.90
35445;DHT22;21562;49.476;6.086;2023-01-29T14:52:34;5.40;99.90
35445;DHT22;21562;49.476;6.086;2023-01-29T14:55:06;5.30;99.90
35445;DHT22;21562;49.476;6.086;2023-01-29T14:57:32;4.70;99.90
35445;DHT22;21562;49.476;6.086;2023-01-29T15:00:04;4.20;99.90
35445;DHT22;21562;49.476;6.086;2023-01-29T15:02:43;4.60;99.90
35445;DHT22;21562;49.476;6.086;2023-01-29T15:05:18;4.80;99.90
35445;DHT22;21562;49.476;6.086;2023-01-29T15:08:03;4.90;99.90
35445;DHT22;21562;49.476;6.086;2023-01-29T15:13:41;4.90;99.90
35445;DHT22;21562;49.476;6.086;2023-01-29T15:16:14;5.10;99.90
35445;DHT22;21562;49.476;6.086;2023-01-29T15:18:42;4.70;99.90
35445;DHT22;21562;49.476;6.086;2023-01-29T15:21:15;4.40;99.90
35445;DHT22;21562;49.476;6.086;2023-01-29T15:23:42;4.00;99.90
35445;DHT22;21562;49.476;6.086;2023-01-29T15:26:16;4.00;99.90
35445;DHT22;21562;49.476;6.086;2023-01-29T15:28:42;4.30;99.90
35445;DHT22;21562;49.476;6.086;2023-01-29T15:31:12;4.10;99.90
35445;DHT22;21562;49.476;6.086;2023-01-29T15:33:41;4.00;99.90
35445;DHT22;21562;49.476;6.086;2023-01-29T15:36:22;3.80;99.90
35445;DHT22;21562;49.476;6.086;2023-01-29T15:39:19;3.80;99.90
35445;DHT22;21562;49.476;6.086;2023-01-29T15:41:47;3.70;99.90
35445;DHT22;21562;49.476;6.086;2023-01-29T15:44:15;3.90;99.90
35445;DHT22;21562;49.476;6.086;2023-01-29T15:46:47;3.80;99.90
35445;DHT22;21562;49.476;6.086;2023-01-29T15:49:34;3.90;99.90
35445;DHT22;21562;49.476;6.086;2023-01-29T15:52:14;4.00;99.90
35445;DHT22;21562;49.476;6.086;2023-01-29T15:54:40;3.80;99.90
35445;DHT22;21562;49.476;6.086;2023-01-29T15:57:17;3.70;99.90
35445;DHT22;21562;49.476;6.086;2023-01-29T15:59:44;4.00;99.90
35445;DHT22;21562;49.476;6.086;2023-01-29T16:04:54;4.10;99.90
35445;DHT22;21562;49.476;6.086;2023-01-29T16:07:20;3.70;99.90
35445;DHT22;21562;49.476;6.086;2023-01-29T16:09:47;3.90;99.90
35445;DHT22;21562;49.476;6.086;2023-01-29T16:12:13;3.80;99.90
35445;DHT22;21562;49.476;6.086;2023-01-29T16:14:39;3.60;99.90
35445;DHT22;21562;49.476;6.086;2023-01-29T16:19:57;3.80;99.90
35445;DHT22;21562;49.476;6.086;2023-01-29T16:22:24;4.00;99.90
35445;DHT22;21562;49.476;6.086;2023-01-29T16:24:50;4.30;99.90
35445;DHT22;21562;49.476;6.086;2023-01-29T16:27:18;4.70;99.90
35445;DHT22;21562;49.476;6.086;2023-01-29T16:29:43;4.90;99.90
35445;DHT22;21562;49.476;6.086;2023-01-29T16:32:09;5.00;99.90
35445;DHT22;21562;49.476;6.086;2023-01-29T16:34:40;5.00;99.90
35445;DHT22;21562;49.476;6.086;2023-01-29T16:37:23;4.50;99.90
35445;DHT22;21562;49.476;6.086;2023-01-29T16:39:50;4.30;99.90
35445;DHT22;21562;49.476;6.086;2023-01-29T16:44:49;4.70;99.90
35445;DHT22;21562;49.476;6.086;2023-01-29T16:47:35;4.80;99.90
35445;DHT22;21562;49.476;6.086;2023-01-29T16:52:55;5.50;99.90
35445;DHT22;21562;49.476;6.086;2023-01-29T16:55:23;5.50;99.90
35445;DHT22;21562;49.476;6.086;2023-01-29T16:57:52;5.40;99.90
35445;DHT22;21562;49.476;6.086;2023-01-29T17:00:28;5.00;99.90
35445;DHT22;21562;49.476;6.086;2023-01-29T17:03:05;5.20;99.90
35445;DHT22;21562;49.476;6.086;2023-01-29T17:05:34;5.20;99.90
35445;DHT22;21562;49.476;6.086;2023-01-29T17:08:01;5.10;99.90
35445;DHT22;21562;49.476;6.086;2023-01-29T17:10:29;5.10;99.90
35445;DHT22;21562;49.476;6.086;2023-01-29T17:13:13;5.30;99.90
35445;DHT22;21562;49.476;6.086;2023-01-29T17:18:23;5.40;99.90
35445;DHT22;21562;49.476;6.086;2023-01-29T17:20:49;5.50;99.90
35445;DHT22;21562;49.476;6.086;2023-01-29T17:23:15;5.60;99.90
35445;DHT22;21562;49.476;6.086;2023-01-29T17:25:41;5.20;99.90
35445;DHT22;21562;49.476;6.086;2023-01-29T17:28:10;4.90;99.90
35445;DHT22;21562;49.476;6.086;2023-01-29T17:30:37;5.20;99.90
35445;DHT22;21562;49.476;6.086;2023-01-29T17:33:17;5.30;99.90
35445;DHT22;21562;49.476;6.086;2023-01-29T17:35:47;5.50;99.90
35445;DHT22;21562;49.476;6.086;2023-01-29T17:38:15;5.70;99.90
35445;DHT22;21562;49.476;6.086;2023-01-29T17:43:45;5.40;99.90
35445;DHT22;21562;49.476;6.086;2023-01-29T17:46:15;5.30;99.90
35445;DHT22;21562;49.476;6.086;2023-01-29T17:48:41;5.10;99.90
35445;DHT22;21562;49.476;6.086;2023-01-29T17:51:15;4.50;99.90
35445;DHT22;21562;49.476;6.086;2023-01-29T17:53:41;4.10;99.90
35445;DHT22;21562;49.476;6.086;2023-01-29T17:56:22;3.80;99.90
35445;DHT22;21562;49.476;6.086;2023-01-29T17:58:51;3.60;99.90
35445;DHT22;21562;49.476;6.086;2023-01-29T18:01:17;3.60;99.90
35445;DHT22;21562;49.476;6.086;2023-01-29T18:03:43;3.70;99.90
35445;DHT22;21562;49.476;6.086;2023-01-29T18:06:09;3.80;99.90
35445;DHT22;21562;49.476;6.086;2023-01-29T18:08:37;3.90;99.90
35445;DHT22;21562;49.476;6.086;2023-01-29T18:11:04;3.80;99.90
35445;DHT22;21562;49.476;6.086;2023-01-29T18:13:29;3.50;99.90
35445;DHT22;21562;49.476;6.086;2023-01-29T18:15:55;3.70;99.90
35445;DHT22;21562;49.476;6.086;2023-01-29T18:18:23;4.00;99.90
35445;DHT22;21562;49.476;6.086;2023-01-29T18:20:49;4.00;99.90
35445;DHT22;21562;49.476;6.086;2023-01-29T18:23:15;4.10;99.90
35445;DHT22;21562;49.476;6.086;2023-01-29T18:25:41;4.00;99.90
35445;DHT22;21562;49.476;6.086;2023-01-29T18:28:14;3.80;99.90
35445;DHT22;21562;49.476;6.086;2023-01-29T18:30:41;3.70;99.90
35445;DHT22;21562;49.476;6.086;2023-01-29T18:33:08;3.50;99.90
35445;DHT22;21562;49.476;6.086;2023-01-29T18:35:34;3.80;99.90
35445;DHT22;21562;49.476;6.086;2023-01-29T18:37:59;3.80;99.90